createdAt,value
2023-02-11T00:05:01.919Z,102523.97
2023-02-11T00:10:10.040Z,102527.44
2023-02-11T00:15:15.765Z,102518.47
2023-02-11T00:20:21.773Z,102503.41
2023-02-11T00:25:27.147Z,102503.41
2023-02-11T00:30:32.978Z,102506.31
2023-02-11T00:35:39.207Z,102509.94
2023-02-11T00:40:46.387Z,102498.28
2023-02-11T00:45:51.935Z,102489.59
2023-02-11T00:50:57.823Z,102484.34
2023-02-11T00:56:05.117Z,102473.72
2023-02-11T01:01:13.115Z,102480.94
2023-02-11T01:06:19.171Z,102471.31
2023-02-11T01:11:24.845Z,102478.38
2023-02-11T01:16:30.697Z,102478.09
2023-02-11T01:21:36.347Z,102471.84
2023-02-11T01:26:41.936Z,102491.63
2023-02-11T01:31:47.756Z,102485.81
2023-02-11T01:36:59.576Z,102494.88
2023-02-11T01:42:07.689Z,102472.06
2023-02-11T01:47:13.102Z,102486.84
2023-02-11T01:52:29.120Z,102483.16
2023-02-11T01:57:37.761Z,102489.03
2023-02-11T02:03:23.147Z,102482.38
2023-02-11T02:08:58.397Z,102479.66
2023-02-11T02:14:04.650Z,102462.56
2023-02-11T02:19:44.087Z,102479.81
2023-02-11T02:25:33.967Z,102461.03
2023-02-11T02:31:11.093Z,102455.03
2023-02-11T02:36:23.018Z,102464.78
2023-02-11T02:41:35.438Z,102441.94
2023-02-11T02:46:41.274Z,102444.25
2023-02-11T02:52:02.412Z,102450.41
2023-02-11T02:57:21.910Z,102445.75
2023-02-11T03:02:59.916Z,102443.13
2023-02-11T03:08:37.688Z,102436.66
2023-02-11T03:13:44.955Z,102416.88
2023-02-11T03:19:03.336Z,102419.06
2023-02-11T03:24:17.775Z,102435.00
2023-02-11T03:29:39.110Z,102436.31
2023-02-11T03:35:15.435Z,102424.03
2023-02-11T03:40:27.710Z,102412.81
2023-02-11T03:45:34.043Z,102424.50
2023-02-11T03:50:41.924Z,102398.38
2023-02-11T03:55:50.534Z,102404.25
2023-02-11T04:00:56.271Z,102414.44
2023-02-11T04:06:01.766Z,102416.53
2023-02-11T04:11:07.594Z,102397.19
2023-02-11T04:16:13.142Z,102401.50
2023-02-11T04:21:18.646Z,102405.78
2023-02-11T04:26:24.086Z,102385.47
2023-02-11T04:31:29.838Z,102381.19
2023-02-11T04:36:35.575Z,102366.75
2023-02-11T04:41:41.310Z,102372.78
2023-02-11T04:46:46.882Z,102375.19
2023-02-11T04:51:52.585Z,102373.75
2023-02-11T04:56:58.132Z,102376.22
2023-02-11T05:02:04.669Z,102392.44
2023-02-11T05:07:10.055Z,102376.00
2023-02-11T05:12:15.771Z,102371.03
2023-02-11T05:17:21.298Z,102365.22
2023-02-11T05:22:26.705Z,102394.56
2023-02-11T05:27:32.303Z,102385.03
2023-02-11T05:32:38.252Z,102372.88
2023-02-11T05:37:43.890Z,102394.63
2023-02-11T05:42:49.391Z,102396.75
2023-02-11T05:47:54.535Z,102387.41
2023-02-11T05:53:00.255Z,102379.97
2023-02-11T05:58:07.473Z,102404.22
2023-02-11T06:03:13.113Z,102401.03
2023-02-11T06:08:18.614Z,102383.91
2023-02-11T06:13:24.214Z,102372.44
2023-02-11T06:18:30.365Z,102387.13
2023-02-11T06:23:36.118Z,102383.47
2023-02-11T06:28:42.075Z,102385.75
2023-02-11T06:33:47.897Z,102362.09
2023-02-11T06:38:53.534Z,102377.78
2023-02-11T06:43:59.196Z,102336.09
2023-02-11T06:49:04.783Z,102371.84
2023-02-11T06:54:12.126Z,102373.72
2023-02-11T06:59:19.320Z,102350.03
2023-02-11T07:04:24.834Z,102360.19
2023-02-11T07:09:30.323Z,102354.75
2023-02-11T07:14:36.072Z,102337.88
2023-02-11T07:19:41.668Z,102332.75
2023-02-11T07:24:47.035Z,102324.94
2023-02-11T07:29:52.187Z,102321.16
2023-02-11T07:34:58.250Z,102326.53
2023-02-11T07:40:04.704Z,102314.50
2023-02-11T07:45:10.567Z,102306.13
2023-02-11T07:50:17.733Z,102302.22
2023-02-11T07:55:23.258Z,102302.25
2023-02-11T08:00:28.872Z,102296.50
2023-02-11T08:05:34.513Z,102298.69
2023-02-11T08:10:40.142Z,102291.84
2023-02-11T08:15:45.573Z,102284.94
2023-02-11T08:20:51.346Z,102294.06
2023-02-11T08:25:56.894Z,102292.81
2023-02-11T08:31:08.950Z,102287.22
2023-02-11T08:36:17.358Z,102290.44
2023-02-11T08:41:22.926Z,102268.88
2023-02-11T08:46:28.460Z,102264.38
2023-02-11T08:51:33.941Z,102253.69
2023-02-11T08:56:39.836Z,102234.88
2023-02-11T09:01:47.863Z,102223.41
2023-02-11T09:06:53.340Z,102224.44
2023-02-11T09:12:01.594Z,102205.31
2023-02-11T09:17:07.198Z,102217.63
2023-02-11T09:22:12.825Z,102227.84
2023-02-11T09:27:18.237Z,102223.16
2023-02-11T09:32:23.749Z,102236.38
2023-02-11T09:37:29.072Z,102235.53
2023-02-11T09:42:53.566Z,102230.16
2023-02-11T09:48:04.418Z,102221.19
2023-02-11T09:53:45.400Z,102213.47
2023-02-11T09:58:50.751Z,102200.91
2023-02-11T10:04:22.698Z,102203.13
2023-02-11T10:10:08.782Z,102205.59
2023-02-11T10:16:11.265Z,102195.72
2023-02-11T10:27:21.691Z,102191.56
2023-02-11T10:32:42.150Z,102191.81
2023-02-11T10:37:48.545Z,102192.94
2023-02-11T10:42:57.182Z,102198.31
2023-02-11T10:48:04.528Z,102196.03
2023-02-11T10:53:21.109Z,102195.22
2023-02-11T10:58:33.338Z,102197.06
2023-02-11T11:03:50.740Z,102199.38
2023-02-11T11:08:56.100Z,102175.78
2023-02-11T11:14:03.884Z,102183.16
2023-02-11T11:19:09.166Z,102177.19
2023-02-11T11:24:58.013Z,102171.63
2023-02-11T11:30:04.021Z,102168.00
2023-02-11T11:35:49.201Z,102178.44
2023-02-11T11:41:17.385Z,102178.78
2023-02-11T11:46:31.323Z,102168.63
2023-02-11T11:51:41.009Z,102175.78
2023-02-11T11:57:19.444Z,102179.63
2023-02-11T12:03:10.944Z,102169.50
2023-02-11T12:08:31.912Z,102179.59
2023-02-11T12:14:14.368Z,102177.41
2023-02-11T12:19:37.657Z,102176.47
2023-02-11T12:25:02.649Z,102176.16
2023-02-11T12:30:22.723Z,102172.63
2023-02-11T12:35:35.684Z,102164.06
2023-02-11T12:41:48.219Z,102164.25
2023-02-11T12:46:59.538Z,102148.38
2023-02-11T12:52:11.541Z,102158.31
2023-02-11T12:57:29.195Z,102150.53
2023-02-11T13:02:52.813Z,102163.09
2023-02-11T13:08:14.690Z,102145.69
2023-02-11T13:13:31.157Z,102140.56
2023-02-11T13:19:21.400Z,102149.59
2023-02-11T13:25:00.354Z,102158.47
2023-02-11T13:30:30.533Z,102147.94
2023-02-11T13:35:41.676Z,102137.25
2023-02-11T13:41:04.976Z,102145.06
2023-02-11T13:46:15.527Z,102128.97
2023-02-11T13:51:38.792Z,102132.75
2023-02-11T13:56:46.749Z,102118.81
2023-02-11T14:02:50.891Z,102116.34
2023-02-11T14:08:32.001Z,102123.94
2023-02-11T14:13:59.570Z,102125.06
2023-02-11T14:19:06.800Z,102119.66
2023-02-11T14:24:18.466Z,102123.72
2023-02-11T14:29:53.440Z,102133.72
2023-02-11T14:35:27.687Z,102127.75
2023-02-11T14:40:34.808Z,102118.94
2023-02-11T14:45:41.086Z,102126.09
2023-02-11T14:51:00.671Z,102133.59
2023-02-11T14:56:31.664Z,102135.84
2023-02-11T15:01:43.077Z,102133.34
2023-02-11T15:06:50.271Z,102126.63
2023-02-11T15:11:58.087Z,102123.69
2023-02-11T15:17:08.458Z,102117.03
2023-02-11T15:22:22.690Z,102119.75
2023-02-11T15:27:28.661Z,102128.22
2023-02-11T15:32:34.255Z,102127.59
2023-02-11T15:37:41.330Z,102128.38
2023-02-11T15:43:08.147Z,102141.63
2023-02-11T15:48:15.824Z,102139.63
2023-02-11T15:53:43.800Z,102132.66
2023-02-11T15:58:52.443Z,102156.84
2023-02-11T16:03:57.736Z,102156.03
2023-02-11T16:09:06.619Z,102152.34
2023-02-11T16:14:30.024Z,102150.34
2023-02-11T16:19:36.838Z,102143.91
2023-02-11T16:24:42.610Z,102132.09
2023-02-11T16:29:50.164Z,102130.63
2023-02-11T16:34:58.518Z,102112.31
2023-02-11T16:40:03.935Z,102102.16
2023-02-11T16:45:10.261Z,102108.09
2023-02-11T16:50:24.841Z,102118.03
2023-02-11T16:55:32.418Z,102113.66
2023-02-11T17:00:38.471Z,102126.63
2023-02-11T17:05:54.895Z,102125.50
2023-02-11T17:11:04.437Z,102120.38
2023-02-11T17:16:25.647Z,102105.44
2023-02-11T17:21:32.559Z,102106.22
2023-02-11T17:26:38.837Z,102110.47
2023-02-11T17:31:44.965Z,102085.69
2023-02-11T17:36:51.026Z,102109.63
2023-02-11T17:41:56.541Z,102087.00
2023-02-11T17:47:01.880Z,102092.41
2023-02-11T17:52:07.798Z,102095.84
2023-02-11T17:57:13.986Z,102096.44
2023-02-11T18:02:19.882Z,102077.16
2023-02-11T18:07:26.666Z,102067.66
2023-02-11T18:12:32.249Z,102072.50
2023-02-11T18:17:37.717Z,102054.03
2023-02-11T18:22:44.824Z,102065.00
2023-02-11T18:27:50.416Z,102048.53
2023-02-11T18:32:56.878Z,102042.91
2023-02-11T18:38:02.060Z,102048.41
2023-02-11T18:43:08.021Z,102039.59
2023-02-11T18:48:13.921Z,102036.69
2023-02-11T18:53:19.511Z,102042.81
2023-02-11T18:58:25.065Z,102035.84
2023-02-11T19:03:30.812Z,102019.47
2023-02-11T19:08:36.262Z,102013.56
2023-02-11T19:13:41.752Z,102010.38
2023-02-11T19:18:47.256Z,101996.72
2023-02-11T19:23:52.725Z,101984.94
2023-02-11T19:28:59.318Z,101986.38
2023-02-11T19:34:05.802Z,101984.50
2023-02-11T19:39:11.481Z,101969.81
2023-02-11T19:44:17.397Z,101977.63
2023-02-11T19:49:26.980Z,101991.00
2023-02-11T19:54:32.420Z,101971.88
2023-02-11T19:59:38.144Z,101966.69
2023-02-11T20:04:43.462Z,101952.00
2023-02-11T20:09:49.018Z,101954.88
2023-02-11T20:14:54.449Z,101957.72
2023-02-11T20:20:00.106Z,101949.50
2023-02-11T20:25:06.132Z,101944.91
2023-02-11T20:30:12.289Z,101954.53
2023-02-11T20:35:17.931Z,101941.53
2023-02-11T20:40:23.645Z,101935.38
2023-02-11T20:45:29.172Z,101937.72
2023-02-11T20:50:35.816Z,101932.88
2023-02-11T20:55:41.266Z,101910.47
2023-02-11T21:00:46.871Z,101904.03
2023-02-11T21:05:52.467Z,101899.66
2023-02-11T21:10:59.049Z,101884.66
2023-02-11T21:16:05.052Z,101886.72
2023-02-11T21:21:11.031Z,101866.94
2023-02-11T21:26:17.811Z,101874.13
2023-02-11T21:31:27.361Z,101850.09
2023-02-11T21:36:33.452Z,101848.16
2023-02-11T21:41:38.992Z,101844.84
2023-02-11T21:46:44.922Z,101840.50
2023-02-11T21:51:50.608Z,101852.22
2023-02-11T21:56:56.168Z,101847.31
2023-02-11T22:02:01.386Z,101842.81
2023-02-11T22:07:07.003Z,101836.16
2023-02-11T22:12:12.600Z,101833.00
2023-02-11T22:17:18.307Z,101828.00
2023-02-11T22:22:24.741Z,101806.56
2023-02-11T22:27:30.329Z,101806.00
2023-02-11T22:32:35.830Z,101808.69
2023-02-11T22:37:41.613Z,101804.34
2023-02-11T22:42:47.509Z,101777.09
2023-02-11T22:47:54.742Z,101800.63
2023-02-11T22:53:00.343Z,101795.94
2023-02-11T22:58:06.386Z,101778.13
2023-02-11T23:03:13.961Z,101774.75
2023-02-11T23:08:19.592Z,101780.16
2023-02-11T23:13:25.049Z,101770.84
2023-02-11T23:18:30.391Z,101764.88
2023-02-11T23:23:36.409Z,101755.94
2023-02-11T23:28:42.574Z,101756.63
2023-02-11T23:33:49.055Z,101741.56
2023-02-11T23:38:54.631Z,101735.00
2023-02-11T23:44:00.346Z,101721.31
2023-02-11T23:49:05.793Z,101717.72
2023-02-11T23:54:15.959Z,101713.75
2023-02-11T23:59:21.501Z,101718.41
